sensor_id;sensor_type;location;lat;lon;timestamp;temperature;humidity
14924;DHT22;7554;43.600;1.480;2022-07-23T00:01:41;23.80;1.00
14924;DHT22;7554;43.600;1.480;2022-07-23T00:04:08;23.90;1.00
14924;DHT22;7554;43.600;1.480;2022-07-23T00:06:36;23.90;1.00
14924;DHT22;7554;43.600;1.480;2022-07-23T00:09:05;23.90;1.00
14924;DHT22;7554;43.600;1.480;2022-07-23T00:11:32;23.90;1.00
14924;DHT22;7554;43.600;1.480;2022-07-23T00:14:00;23.80;1.00
14924;DHT22;7554;43.600;1.480;2022-07-23T00:16:27;23.80;1.00
14924;DHT22;7554;43.600;1.480;2022-07-23T00:18:55;23.80;1.00
14924;DHT22;7554;43.600;1.480;2022-07-23T00:21:22;23.80;1.00
14924;DHT22;7554;43.600;1.480;2022-07-23T00:23:50;23.80;1.00
14924;DHT22;7554;43.600;1.480;2022-07-23T00:26:19;23.80;1.00
14924;DHT22;7554;43.600;1.480;2022-07-23T00:28:46;23.70;1.00
14924;DHT22;7554;43.600;1.480;2022-07-23T00:31:13;23.60;1.00
14924;DHT22;7554;43.600;1.480;2022-07-23T00:33:41;23.50;1.00
14924;DHT22;7554;43.600;1.480;2022-07-23T00:36:09;23.50;1.00
14924;DHT22;7554;43.600;1.480;2022-07-23T00:38:36;23.50;1.00
14924;DHT22;7554;43.600;1.480;2022-07-23T00:41:04;23.50;1.00
14924;DHT22;7554;43.600;1.480;2022-07-23T00:43:33;21.30;3.80
14924;DHT22;7554;43.600;1.480;2022-07-23T00:46:01;20.60;99.90
14924;DHT22;7554;43.600;1.480;2022-07-23T00:48:28;20.40;92.80
14924;DHT22;7554;43.600;1.480;2022-07-23T00:50:56;20.70;1.00
14924;DHT22;7554;43.600;1.480;2022-07-23T00:53:24;20.50;1.00
14924;DHT22;7554;43.600;1.480;2022-07-23T00:55:51;20.70;1.00
14924;DHT22;7554;43.600;1.480;2022-07-23T00:58:20;20.50;1.00
14924;DHT22;7554;43.600;1.480;2022-07-23T01:00:49;20.60;19.50
14924;DHT22;7554;43.600;1.480;2022-07-23T01:03:16;20.60;82.00
14924;DHT22;7554;43.600;1.480;2022-07-23T01:05:44;20.50;99.90
14924;DHT22;7554;43.600;1.480;2022-07-23T01:08:12;20.40;99.90
14924;DHT22;7554;43.600;1.480;2022-07-23T01:10:40;20.60;99.90
14924;DHT22;7554;43.600;1.480;2022-07-23T01:13:09;20.60;99.90
14924;DHT22;7554;43.600;1.480;2022-07-23T01:15:37;20.70;99.90
14924;DHT22;7554;43.600;1.480;2022-07-23T01:18:08;20.60;99.90
14924;DHT22;7554;43.600;1.480;2022-07-23T01:20:35;20.60;99.90
14924;DHT22;7554;43.600;1.480;2022-07-23T01:23:04;20.70;99.90
14924;DHT22;7554;43.600;1.480;2022-07-23T01:25:32;20.50;1.00
14924;DHT22;7554;43.600;1.480;2022-07-23T01:27:59;20.50;1.00
14924;DHT22;7554;43.600;1.480;2022-07-23T01:30:27;20.50;1.00
14924;DHT22;7554;43.600;1.480;2022-07-23T01:32:55;20.50;1.00
14924;DHT22;7554;43.600;1.480;2022-07-23T01:35:22;20.40;99.90
14924;DHT22;7554;43.600;1.480;2022-07-23T01:37:50;20.60;1.00
14924;DHT22;7554;43.600;1.480;2022-07-23T01:40:19;20.60;99.90
14924;DHT22;7554;43.600;1.480;2022-07-23T01:42:46;20.60;99.90
14924;DHT22;7554;43.600;1.480;2022-07-23T01:45:14;20.70;1.00
14924;DHT22;7554;43.600;1.480;2022-07-23T01:47:41;20.80;1.00
14924;DHT22;7554;43.600;1.480;2022-07-23T01:50:09;20.80;34.50
14924;DHT22;7554;43.600;1.480;2022-07-23T01:52:37;21.00;61.70
14924;DHT22;7554;43.600;1.480;2022-07-23T01:55:06;21.00;1.00
14924;DHT22;7554;43.600;1.480;2022-07-23T01:57:35;21.10;1.00
14924;DHT22;7554;43.600;1.480;2022-07-23T02:00:03;21.30;1.00
14924;DHT22;7554;43.600;1.480;2022-07-23T02:02:31;21.40;1.00
14924;DHT22;7554;43.600;1.480;2022-07-23T02:04:59;21.50;1.00
14924;DHT22;7554;43.600;1.480;2022-07-23T02:07:26;21.60;1.00
14924;DHT22;7554;43.600;1.480;2022-07-23T02:09:54;21.50;1.00
14924;DHT22;7554;43.600;1.480;2022-07-23T02:12:21;21.60;1.00
14924;DHT22;7554;43.600;1.480;2022-07-23T02:14:50;21.60;1.00
14924;DHT22;7554;43.600;1.480;2022-07-23T02:17:18;21.70;1.00
14924;DHT22;7554;43.600;1.480;2022-07-23T02:19:45;21.60;1.00
14924;DHT22;7554;43.600;1.480;2022-07-23T02:22:13;21.60;1.00
14924;DHT22;7554;43.600;1.480;2022-07-23T02:24:40;21.60;1.00
14924;DHT22;7554;43.600;1.480;2022-07-23T02:27:08;21.50;1.00
14924;DHT22;7554;43.600;1.480;2022-07-23T02:29:36;21.60;1.00
14924;DHT22;7554;43.600;1.480;2022-07-23T02:32:05;21.60;1.00
14924;DHT22;7554;43.600;1.480;2022-07-23T02:34:33;21.60;1.00
14924;DHT22;7554;43.600;1.480;2022-07-23T02:37:00;21.50;1.00
14924;DHT22;7554;43.600;1.480;2022-07-23T02:39:28;21.60;1.00
14924;DHT22;7554;43.600;1.480;2022-07-23T02:41:55;21.50;1.00
14924;DHT22;7554;43.600;1.480;2022-07-23T02:44:23;21.40;1.00
14924;DHT22;7554;43.600;1.480;2022-07-23T02:46:51;21.40;1.00
14924;DHT22;7554;43.600;1.480;2022-07-23T02:49:20;21.40;1.00
14924;DHT22;7554;43.600;1.480;2022-07-23T02:51:47;21.40;1.00
14924;DHT22;7554;43.600;1.480;2022-07-23T02:54:15;21.40;1.00
14924;DHT22;7554;43.600;1.480;2022-07-23T02:56:43;21.40;1.00
14924;DHT22;7554;43.600;1.480;2022-07-23T02:59:10;21.30;1.00
14924;DHT22;7554;43.600;1.480;2022-07-23T03:01:38;21.30;1.00
14924;DHT22;7554;43.600;1.480;2022-07-23T03:04:06;21.40;1.00
14924;DHT22;7554;43.600;1.480;2022-07-23T03:06:35;21.30;1.00
14924;DHT22;7554;43.600;1.480;2022-07-23T03:09:03;21.40;1.00
14924;DHT22;7554;43.600;1.480;2022-07-23T03:11:30;21.40;1.00
14924;DHT22;7554;43.600;1.480;2022-07-23T03:13:58;21.40;1.00
14924;DHT22;7554;43.600;1.480;2022-07-23T03:16:26;21.30;1.00
14924;DHT22;7554;43.600;1.480;2022-07-23T03:18:53;21.40;1.00
14924;DHT22;7554;43.600;1.480;2022-07-23T03:21:21;21.50;1.00
14924;DHT22;7554;43.600;1.480;2022-07-23T03:23:50;21.40;1.00
14924;DHT22;7554;43.600;1.480;2022-07-23T03:26:17;21.40;1.00
14924;DHT22;7554;43.600;1.480;2022-07-23T03:28:45;21.40;1.00
14924;DHT22;7554;43.600;1.480;2022-07-23T03:31:12;21.40;1.00
14924;DHT22;7554;43.600;1.480;2022-07-23T03:33:40;21.50;1.00
14924;DHT22;7554;43.600;1.480;2022-07-23T03:36:09;21.40;1.00
14924;DHT22;7554;43.600;1.480;2022-07-23T03:38:36;21.40;1.00
14924;DHT22;7554;43.600;1.480;2022-07-23T03:41:05;21.40;1.00
14924;DHT22;7554;43.600;1.480;2022-07-23T03:43:33;21.30;1.00
14924;DHT22;7554;43.600;1.480;2022-07-23T03:46:01;21.40;1.00
14924;DHT22;7554;43.600;1.480;2022-07-23T03:48:29;21.30;1.00
14924;DHT22;7554;43.600;1.480;2022-07-23T03:50:56;21.30;1.00
14924;DHT22;7554;43.600;1.480;2022-07-23T03:53:24;21.30;1.00
14924;DHT22;7554;43.600;1.480;2022-07-23T03:55:51;21.30;1.00
14924;DHT22;7554;43.600;1.480;2022-07-23T03:58:21;21.30;1.00
14924;DHT22;7554;43.600;1.480;2022-07-23T04:00:48;21.20;1.00
14924;DHT22;7554;43.600;1.480;2022-07-23T04:03:16;21.20;1.00
14924;DHT22;7554;43.600;1.480;2022-07-23T04:05:43;21.20;1.00
14924;DHT22;7554;43.600;1.480;2022-07-23T04:08:11;21.30;1.00
14924;DHT22;7554;43.600;1.480;2022-07-23T04:10:39;21.30;1.00
14924;DHT22;7554;43.600;1.480;2022-07-23T04:13:06;21.30;1.00
14924;DHT22;7554;43.600;1.480;2022-07-23T04:15:35;21.30;1.00
14924;DHT22;7554;43.600;1.480;2022-07-23T04:18:03;21.20;1.00
14924;DHT22;7554;43.600;1.480;2022-07-23T04:20:31;21.10;1.00
14924;DHT22;7554;43.600;1.480;2022-07-23T04:22:59;21.00;1.00
14924;DHT22;7554;43.600;1.480;2022-07-23T04:25:26;21.00;1.00
14924;DHT22;7554;43.600;1.480;2022-07-23T04:27:54;21.10;1.00
14924;DHT22;7554;43.600;1.480;2022-07-23T04:30:21;21.20;1.00
14924;DHT22;7554;43.600;1.480;2022-07-23T04:32:51;21.20;1.00
14924;DHT22;7554;43.600;1.480;2022-07-23T04:35:19;21.10;1.00
14924;DHT22;7554;43.600;1.480;2022-07-23T04:37:46;21.00;1.00
14924;DHT22;7554;43.600;1.480;2022-07-23T04:40:14;21.10;1.00
14924;DHT22;7554;43.600;1.480;2022-07-23T04:42:42;21.00;1.00
14924;DHT22;7554;43.600;1.480;2022-07-23T04:45:10;21.00;1.00
14924;DHT22;7554;43.600;1.480;2022-07-23T04:47:37;21.00;1.00
14924;DHT22;7554;43.600;1.480;2022-07-23T04:50:07;21.10;1.00
14924;DHT22;7554;43.600;1.480;2022-07-23T04:52:35;21.20;1.00
14924;DHT22;7554;43.600;1.480;2022-07-23T04:55:04;21.20;1.00
14924;DHT22;7554;43.600;1.480;2022-07-23T04:57:31;21.10;1.00
14924;DHT22;7554;43.600;1.480;2022-07-23T04:59:59;21.20;1.00
14924;DHT22;7554;43.600;1.480;2022-07-23T05:02:27;21.20;1.00
14924;DHT22;7554;43.600;1.480;2022-07-23T05:04:54;21.20;1.00
14924;DHT22;7554;43.600;1.480;2022-07-23T05:07:23;21.10;1.00
14924;DHT22;7554;43.600;1.480;2022-07-23T05:09:51;21.20;1.00
14924;DHT22;7554;43.600;1.480;2022-07-23T05:12:18;21.20;1.00
14924;DHT22;7554;43.600;1.480;2022-07-23T05:14:46;21.20;1.00
14924;DHT22;7554;43.600;1.480;2022-07-23T05:17:13;21.20;1.00
14924;DHT22;7554;43.600;1.480;2022-07-23T05:19:41;21.30;1.00
14924;DHT22;7554;43.600;1.480;2022-07-23T05:22:09;21.30;1.00
14924;DHT22;7554;43.600;1.480;2022-07-23T05:24:38;21.30;1.00
14924;DHT22;7554;43.600;1.480;2022-07-23T05:27:06;21.30;1.00
14924;DHT22;7554;43.600;1.480;2022-07-23T05:29:33;21.30;1.00
14924;DHT22;7554;43.600;1.480;2022-07-23T05:32:01;21.30;1.00
14924;DHT22;7554;43.600;1.480;2022-07-23T05:34:29;21.30;1.00
14924;DHT22;7554;43.600;1.480;2022-07-23T05:36:56;21.30;1.00
14924;DHT22;7554;43.600;1.480;2022-07-23T05:39:24;21.30;1.00
14924;DHT22;7554;43.600;1.480;2022-07-23T05:41:53;21.30;1.00
14924;DHT22;7554;43.600;1.480;2022-07-23T05:44:21;21.20;1.00
14924;DHT22;7554;43.600;1.480;2022-07-23T05:46:48;21.20;1.00
14924;DHT22;7554;43.600;1.480;2022-07-23T05:49:16;21.20;1.00
14924;DHT22;7554;43.600;1.480;2022-07-23T05:51:44;21.20;1.00
14924;DHT22;7554;43.600;1.480;2022-07-23T05:54:12;21.30;1.00
14924;DHT22;7554;43.600;1.480;2022-07-23T05:56:39;21.40;1.00
14924;DHT22;7554;43.600;1.480;2022-07-23T05:59:08;21.40;1.00
14924;DHT22;7554;43.600;1.480;2022-07-23T06:01:38;21.40;1.00
14924;DHT22;7554;43.600;1.480;2022-07-23T06:04:05;21.60;1.00
14924;DHT22;7554;43.600;1.480;2022-07-23T06:06:33;21.70;1.00
14924;DHT22;7554;43.600;1.480;2022-07-23T06:09:01;21.80;1.00
14924;DHT22;7554;43.600;1.480;2022-07-23T06:11:28;22.00;1.00
14924;DHT22;7554;43.600;1.480;2022-07-23T06:13:57;22.10;1.00
14924;DHT22;7554;43.600;1.480;2022-07-23T06:16:26;22.10;1.00
14924;DHT22;7554;43.600;1.480;2022-07-23T06:18:53;22.30;1.00
14924;DHT22;7554;43.600;1.480;2022-07-23T06:21:21;22.40;1.00
14924;DHT22;7554;43.600;1.480;2022-07-23T06:23:49;22.50;1.00
14924;DHT22;7554;43.600;1.480;2022-07-23T06:26:17;22.60;1.00
14924;DHT22;7554;43.600;1.480;2022-07-23T06:28:45;22.50;1.00
14924;DHT22;7554;43.600;1.480;2022-07-23T06:31:12;22.40;1.00
14924;DHT22;7554;43.600;1.480;2022-07-23T06:33:41;22.30;1.00
14924;DHT22;7554;43.600;1.480;2022-07-23T06:36:09;22.20;1.00
14924;DHT22;7554;43.600;1.480;2022-07-23T06:38:37;22.00;1.00
14924;DHT22;7554;43.600;1.480;2022-07-23T06:41:05;22.00;1.00
14924;DHT22;7554;43.600;1.480;2022-07-23T06:43:32;22.00;1.00
14924;DHT22;7554;43.600;1.480;2022-07-23T06:46:00;21.80;1.00
14924;DHT22;7554;43.600;1.480;2022-07-23T06:48:27;21.90;1.00
14924;DHT22;7554;43.600;1.480;2022-07-23T06:50:56;22.00;1.00
14924;DHT22;7554;43.600;1.480;2022-07-23T06:53:24;22.20;1.00
14924;DHT22;7554;43.600;1.480;2022-07-23T06:55:52;22.40;1.00
14924;DHT22;7554;43.600;1.480;2022-07-23T06:58:19;22.60;1.00
14924;DHT22;7554;43.600;1.480;2022-07-23T07:00:48;22.90;1.00
14924;DHT22;7554;43.600;1.480;2022-07-23T07:03:17;23.00;1.00
14924;DHT22;7554;43.600;1.480;2022-07-23T07:05:45;23.30;1.00
14924;DHT22;7554;43.600;1.480;2022-07-23T07:08:14;23.30;1.00
14924;DHT22;7554;43.600;1.480;2022-07-23T07:10:42;23.30;1.00
14924;DHT22;7554;43.600;1.480;2022-07-23T07:13:10;23.10;1.00
14924;DHT22;7554;43.600;1.480;2022-07-23T07:15:38;23.30;1.00
14924;DHT22;7554;43.600;1.480;2022-07-23T07:18:07;23.40;1.00
14924;DHT22;7554;43.600;1.480;2022-07-23T07:20:35;23.30;1.00
14924;DHT22;7554;43.600;1.480;2022-07-23T07:23:02;23.70;1.00
14924;DHT22;7554;43.600;1.480;2022-07-23T07:25:32;23.80;1.00
14924;DHT22;7554;43.600;1.480;2022-07-23T07:28:00;24.00;1.00
14924;DHT22;7554;43.600;1.480;2022-07-23T07:30:28;24.30;1.00
14924;DHT22;7554;43.600;1.480;2022-07-23T07:32:55;24.50;1.00
14924;DHT22;7554;43.600;1.480;2022-07-23T07:35:23;24.30;1.00
14924;DHT22;7554;43.600;1.480;2022-07-23T07:37:51;24.40;1.00
14924;DHT22;7554;43.600;1.480;2022-07-23T07:40:19;24.60;1.00
14924;DHT22;7554;43.600;1.480;2022-07-23T07:42:51;24.50;1.00
14924;DHT22;7554;43.600;1.480;2022-07-23T07:45:20;24.90;1.00
14924;DHT22;7554;43.600;1.480;2022-07-23T07:47:49;24.80;1.00
14924;DHT22;7554;43.600;1.480;2022-07-23T07:50:16;24.70;1.00
14924;DHT22;7554;43.600;1.480;2022-07-23T07:52:44;25.10;1.00
14924;DHT22;7554;43.600;1.480;2022-07-23T07:55:12;25.30;1.00
14924;DHT22;7554;43.600;1.480;2022-07-23T07:57:41;25.30;1.00
14924;DHT22;7554;43.600;1.480;2022-07-23T08:00:11;25.80;1.00
14924;DHT22;7554;43.600;1.480;2022-07-23T08:02:43;26.00;1.00
14924;DHT22;7554;43.600;1.480;2022-07-23T08:05:12;26.10;1.00
14924;DHT22;7554;43.600;1.480;2022-07-23T08:07:40;26.20;1.00
14924;DHT22;7554;43.600;1.480;2022-07-23T08:10:08;26.20;1.00
14924;DHT22;7554;43.600;1.480;2022-07-23T08:12:41;26.10;1.00
14924;DHT22;7554;43.600;1.480;2022-07-23T08:15:13;26.30;1.00
14924;DHT22;7554;43.600;1.480;2022-07-23T08:17:41;26.20;1.00
14924;DHT22;7554;43.600;1.480;2022-07-23T08:20:10;26.40;1.00
14924;DHT22;7554;43.600;1.480;2022-07-23T08:22:46;26.50;1.00
14924;DHT22;7554;43.600;1.480;2022-07-23T08:25:14;26.30;1.00
14924;DHT22;7554;43.600;1.480;2022-07-23T08:27:42;26.40;1.00
14924;DHT22;7554;43.600;1.480;2022-07-23T08:30:12;26.60;1.00
14924;DHT22;7554;43.600;1.480;2022-07-23T08:32:53;26.60;1.00
14924;DHT22;7554;43.600;1.480;2022-07-23T08:35:24;26.30;1.00
14924;DHT22;7554;43.600;1.480;2022-07-23T08:37:53;26.20;1.00
14924;DHT22;7554;43.600;1.480;2022-07-23T08:40:21;26.50;1.00
14924;DHT22;7554;43.600;1.480;2022-07-23T08:42:49;26.40;1.00
14924;DHT22;7554;43.600;1.480;2022-07-23T08:45:21;26.60;1.00
14924;DHT22;7554;43.600;1.480;2022-07-23T08:47:49;26.70;1.00
14924;DHT22;7554;43.600;1.480;2022-07-23T08:50:17;26.40;1.00
14924;DHT22;7554;43.600;1.480;2022-07-23T08:52:45;26.20;1.00
14924;DHT22;7554;43.600;1.480;2022-07-23T08:55:16;26.40;1.00
14924;DHT22;7554;43.600;1.480;2022-07-23T08:57:48;26.20;1.00
14924;DHT22;7554;43.600;1.480;2022-07-23T09:00:16;26.50;1.00
14924;DHT22;7554;43.600;1.480;2022-07-23T09:02:46;26.90;1.00
14924;DHT22;7554;43.600;1.480;2022-07-23T09:05:14;27.00;1.00
14924;DHT22;7554;43.600;1.480;2022-07-23T09:08:10;27.00;1.00
14924;DHT22;7554;43.600;1.480;2022-07-23T09:10:51;27.10;1.00
14924;DHT22;7554;43.600;1.480;2022-07-23T09:13:31;26.80;1.00
14924;DHT22;7554;43.600;1.480;2022-07-23T09:16:01;27.80;1.00
14924;DHT22;7554;43.600;1.480;2022-07-23T09:18:37;28.30;1.00
14924;DHT22;7554;43.600;1.480;2022-07-23T09:21:12;28.60;1.00
14924;DHT22;7554;43.600;1.480;2022-07-23T09:23:42;28.70;1.00
14924;DHT22;7554;43.600;1.480;2022-07-23T09:26:30;28.90;1.00
14924;DHT22;7554;43.600;1.480;2022-07-23T09:29:07;29.30;1.00
14924;DHT22;7554;43.600;1.480;2022-07-23T09:31:47;29.50;1.00
14924;DHT22;7554;43.600;1.480;2022-07-23T09:34:20;29.30;1.00
14924;DHT22;7554;43.600;1.480;2022-07-23T09:36:49;29.30;1.00
14924;DHT22;7554;43.600;1.480;2022-07-23T09:39:24;29.30;1.00
14924;DHT22;7554;43.600;1.480;2022-07-23T09:41:52;29.50;1.00
14924;DHT22;7554;43.600;1.480;2022-07-23T09:44:21;29.40;1.00
14924;DHT22;7554;43.600;1.480;2022-07-23T09:46:49;29.50;1.00
14924;DHT22;7554;43.600;1.480;2022-07-23T09:49:20;29.60;1.00
14924;DHT22;7554;43.600;1.480;2022-07-23T09:51:54;29.90;1.00
14924;DHT22;7554;43.600;1.480;2022-07-23T09:54:30;30.10;1.00
14924;DHT22;7554;43.600;1.480;2022-07-23T09:57:02;30.40;1.00
14924;DHT22;7554;43.600;1.480;2022-07-23T09:59:31;30.90;1.00
14924;DHT22;7554;43.600;1.480;2022-07-23T10:02:00;31.10;1.00
14924;DHT22;7554;43.600;1.480;2022-07-23T10:04:30;31.30;1.00
14924;DHT22;7554;43.600;1.480;2022-07-23T10:07:00;30.90;1.00
14924;DHT22;7554;43.600;1.480;2022-07-23T10:09:30;30.70;1.00
14924;DHT22;7554;43.600;1.480;2022-07-23T10:11:59;30.80;1.00
14924;DHT22;7554;43.600;1.480;2022-07-23T10:14:35;30.80;1.00
14924;DHT22;7554;43.600;1.480;2022-07-23T10:17:03;30.90;1.00
14924;DHT22;7554;43.600;1.480;2022-07-23T10:19:32;30.80;1.00
14924;DHT22;7554;43.600;1.480;2022-07-23T10:22:02;30.70;1.00
14924;DHT22;7554;43.600;1.480;2022-07-23T10:27:46;31.30;1.00
14924;DHT22;7554;43.600;1.480;2022-07-23T10:30:20;30.70;1.00
14924;DHT22;7554;43.600;1.480;2022-07-23T10:32:57;30.10;1.00
14924;DHT22;7554;43.600;1.480;2022-07-23T10:35:36;29.80;1.00
14924;DHT22;7554;43.600;1.480;2022-07-23T10:38:10;30.30;1.00
14924;DHT22;7554;43.600;1.480;2022-07-23T10:40:53;30.90;1.00
14924;DHT22;7554;43.600;1.480;2022-07-23T10:43:23;30.90;1.00
14924;DHT22;7554;43.600;1.480;2022-07-23T10:45:51;30.80;1.00
14924;DHT22;7554;43.600;1.480;2022-07-23T10:48:20;30.80;1.00
14924;DHT22;7554;43.600;1.480;2022-07-23T10:51:09;30.40;1.00
14924;DHT22;7554;43.600;1.480;2022-07-23T10:53:57;29.50;1.00
14924;DHT22;7554;43.600;1.480;2022-07-23T10:56:50;29.60;1.00
14924;DHT22;7554;43.600;1.480;2022-07-23T10:59:31;30.10;1.00
14924;DHT22;7554;43.600;1.480;2022-07-23T11:02:23;30.40;1.00
14924;DHT22;7554;43.600;1.480;2022-07-23T11:04:52;30.40;1.00
14924;DHT22;7554;43.600;1.480;2022-07-23T11:07:21;30.30;1.00
14924;DHT22;7554;43.600;1.480;2022-07-23T11:09:49;30.00;1.00
14924;DHT22;7554;43.600;1.480;2022-07-23T11:12:35;30.20;1.00
14924;DHT22;7554;43.600;1.480;2022-07-23T11:15:08;30.50;1.00
14924;DHT22;7554;43.600;1.480;2022-07-23T11:17:38;30.50;1.00
14924;DHT22;7554;43.600;1.480;2022-07-23T11:20:16;30.30;1.00
14924;DHT22;7554;43.600;1.480;2022-07-23T11:22:49;30.60;1.00
14924;DHT22;7554;43.600;1.480;2022-07-23T11:25:33;30.40;1.00
14924;DHT22;7554;43.600;1.480;2022-07-23T11:28:14;30.00;1.00
14924;DHT22;7554;43.600;1.480;2022-07-23T11:30:43;28.90;1.00
14924;DHT22;7554;43.600;1.480;2022-07-23T11:33:20;29.30;1.00
14924;DHT22;7554;43.600;1.480;2022-07-23T11:35:50;29.60;1.00
14924;DHT22;7554;43.600;1.480;2022-07-23T11:38:28;29.40;1.00
14924;DHT22;7554;43.600;1.480;2022-07-23T11:40:57;29.30;1.00
14924;DHT22;7554;43.600;1.480;2022-07-23T11:43:25;29.50;1.00
14924;DHT22;7554;43.600;1.480;2022-07-23T11:45:54;30.00;1.00
14924;DHT22;7554;43.600;1.480;2022-07-23T11:48:25;30.20;1.00
14924;DHT22;7554;43.600;1.480;2022-07-23T11:50:53;30.10;1.00
14924;DHT22;7554;43.600;1.480;2022-07-23T11:53:22;30.10;1.00
14924;DHT22;7554;43.600;1.480;2022-07-23T11:55:51;30.00;1.00
14924;DHT22;7554;43.600;1.480;2022-07-23T11:58:20;29.10;1.00
14924;DHT22;7554;43.600;1.480;2022-07-23T12:00:48;29.00;1.00
14924;DHT22;7554;43.600;1.480;2022-07-23T12:03:16;28.40;1.00
14924;DHT22;7554;43.600;1.480;2022-07-23T12:05:44;28.30;1.00
14924;DHT22;7554;43.600;1.480;2022-07-23T12:08:11;28.10;1.00
14924;DHT22;7554;43.600;1.480;2022-07-23T12:10:41;28.00;1.00
14924;DHT22;7554;43.600;1.480;2022-07-23T12:13:11;27.80;1.00
14924;DHT22;7554;43.600;1.480;2022-07-23T12:15:41;27.80;1.00
14924;DHT22;7554;43.600;1.480;2022-07-23T12:18:11;27.90;1.00
14924;DHT22;7554;43.600;1.480;2022-07-23T12:20:40;27.90;1.00
14924;DHT22;7554;43.600;1.480;2022-07-23T12:23:09;28.00;1.00
14924;DHT22;7554;43.600;1.480;2022-07-23T12:25:39;28.10;1.00
14924;DHT22;7554;43.600;1.480;2022-07-23T12:28:09;28.10;1.00
14924;DHT22;7554;43.600;1.480;2022-07-23T12:30:40;27.90;1.00
14924;DHT22;7554;43.600;1.480;2022-07-23T12:33:10;28.00;1.00
14924;DHT22;7554;43.600;1.480;2022-07-23T12:35:39;28.10;1.00
14924;DHT22;7554;43.600;1.480;2022-07-23T12:38:09;28.10;1.00
14924;DHT22;7554;43.600;1.480;2022-07-23T12:40:42;28.00;1.00
14924;DHT22;7554;43.600;1.480;2022-07-23T12:43:12;28.10;1.00
14924;DHT22;7554;43.600;1.480;2022-07-23T12:45:49;27.90;1.00
14924;DHT22;7554;43.600;1.480;2022-07-23T12:48:21;27.80;1.00
14924;DHT22;7554;43.600;1.480;2022-07-23T12:50:52;28.10;1.00
14924;DHT22;7554;43.600;1.480;2022-07-23T12:53:22;28.20;1.00
14924;DHT22;7554;43.600;1.480;2022-07-23T12:55:50;28.10;1.00
14924;DHT22;7554;43.600;1.480;2022-07-23T12:58:20;28.00;1.00
14924;DHT22;7554;43.600;1.480;2022-07-23T13:01:01;28.10;1.00
14924;DHT22;7554;43.600;1.480;2022-07-23T13:03:36;28.20;1.00
14924;DHT22;7554;43.600;1.480;2022-07-23T13:06:06;28.10;1.00
14924;DHT22;7554;43.600;1.480;2022-07-23T13:08:36;27.90;1.00
14924;DHT22;7554;43.600;1.480;2022-07-23T13:11:05;28.00;1.00
14924;DHT22;7554;43.600;1.480;2022-07-23T13:13:34;28.00;1.00
14924;DHT22;7554;43.600;1.480;2022-07-23T13:16:03;28.10;1.00
14924;DHT22;7554;43.600;1.480;2022-07-23T13:18:31;27.80;1.00
14924;DHT22;7554;43.600;1.480;2022-07-23T13:20:59;27.80;1.00
14924;DHT22;7554;43.600;1.480;2022-07-23T13:23:26;27.60;1.00
14924;DHT22;7554;43.600;1.480;2022-07-23T13:25:54;27.70;1.00
14924;DHT22;7554;43.600;1.480;2022-07-23T13:28:22;28.00;1.00
14924;DHT22;7554;43.600;1.480;2022-07-23T13:30:50;28.20;1.00
14924;DHT22;7554;43.600;1.480;2022-07-23T13:33:21;28.30;1.00
14924;DHT22;7554;43.600;1.480;2022-07-23T13:35:50;28.40;1.00
14924;DHT22;7554;43.600;1.480;2022-07-23T13:38:18;28.20;1.00
14924;DHT22;7554;43.600;1.480;2022-07-23T13:40:48;28.00;1.00
14924;DHT22;7554;43.600;1.480;2022-07-23T13:43:17;27.90;1.00
14924;DHT22;7554;43.600;1.480;2022-07-23T13:45:45;28.00;1.00
14924;DHT22;7554;43.600;1.480;2022-07-23T13:48:14;28.10;1.00
14924;DHT22;7554;43.600;1.480;2022-07-23T13:50:44;28.10;1.00
14924;DHT22;7554;43.600;1.480;2022-07-23T13:53:13;28.10;1.00
14924;DHT22;7554;43.600;1.480;2022-07-23T13:55:42;28.10;1.00
14924;DHT22;7554;43.600;1.480;2022-07-23T13:58:10;28.10;1.00
14924;DHT22;7554;43.600;1.480;2022-07-23T14:00:40;28.10;1.00
14924;DHT22;7554;43.600;1.480;2022-07-23T14:03:08;27.90;1.00
14924;DHT22;7554;43.600;1.480;2022-07-23T14:05:35;27.80;1.00
14924;DHT22;7554;43.600;1.480;2022-07-23T14:08:05;27.70;1.00
14924;DHT22;7554;43.600;1.480;2022-07-23T14:10:32;27.60;1.00
14924;DHT22;7554;43.600;1.480;2022-07-23T14:13:00;27.60;1.00
14924;DHT22;7554;43.600;1.480;2022-07-23T14:15:29;27.70;1.00
14924;DHT22;7554;43.600;1.480;2022-07-23T14:17:57;27.80;1.00
14924;DHT22;7554;43.600;1.480;2022-07-23T14:20:25;27.80;1.00
14924;DHT22;7554;43.600;1.480;2022-07-23T14:22:52;28.00;1.00
14924;DHT22;7554;43.600;1.480;2022-07-23T14:25:23;28.20;1.00
14924;DHT22;7554;43.600;1.480;2022-07-23T14:27:50;28.20;1.00
14924;DHT22;7554;43.600;1.480;2022-07-23T14:30:17;28.30;1.00
14924;DHT22;7554;43.600;1.480;2022-07-23T14:32:45;28.30;1.00
14924;DHT22;7554;43.600;1.480;2022-07-23T14:35:12;28.10;1.00
14924;DHT22;7554;43.600;1.480;2022-07-23T14:37:40;28.10;1.00
14924;DHT22;7554;43.600;1.480;2022-07-23T14:40:08;28.00;1.00
14924;DHT22;7554;43.600;1.480;2022-07-23T14:42:36;27.90;1.00
14924;DHT22;7554;43.600;1.480;2022-07-23T14:45:04;28.10;1.00
14924;DHT22;7554;43.600;1.480;2022-07-23T14:47:32;28.10;1.00
14924;DHT22;7554;43.600;1.480;2022-07-23T14:50:00;28.10;1.00
14924;DHT22;7554;43.600;1.480;2022-07-23T14:52:27;28.10;1.00
14924;DHT22;7554;43.600;1.480;2022-07-23T14:54:55;28.10;1.00
14924;DHT22;7554;43.600;1.480;2022-07-23T14:57:22;28.10;1.00
14924;DHT22;7554;43.600;1.480;2022-07-23T14:59:51;28.10;1.00
14924;DHT22;7554;43.600;1.480;2022-07-23T15:02:18;28.20;1.00
14924;DHT22;7554;43.600;1.480;2022-07-23T15:04:46;28.30;1.00
14924;DHT22;7554;43.600;1.480;2022-07-23T15:07:13;28.40;1.00
14924;DHT22;7554;43.600;1.480;2022-07-23T15:09:41;28.30;1.00
14924;DHT22;7554;43.600;1.480;2022-07-23T15:12:08;28.30;1.00
14924;DHT22;7554;43.600;1.480;2022-07-23T15:14:36;28.30;1.00
14924;DHT22;7554;43.600;1.480;2022-07-23T15:17:05;28.30;1.00
14924;DHT22;7554;43.600;1.480;2022-07-23T15:19:32;28.30;1.00
14924;DHT22;7554;43.600;1.480;2022-07-23T15:22:00;28.30;1.00
14924;DHT22;7554;43.600;1.480;2022-07-23T15:24:27;28.30;1.00
14924;DHT22;7554;43.600;1.480;2022-07-23T15:26:55;28.30;1.00
14924;DHT22;7554;43.600;1.480;2022-07-23T15:29:22;28.40;1.00
14924;DHT22;7554;43.600;1.480;2022-07-23T15:31:50;28.30;1.00
14924;DHT22;7554;43.600;1.480;2022-07-23T15:34:19;28.30;1.00
14924;DHT22;7554;43.600;1.480;2022-07-23T15:36:46;28.30;1.00
14924;DHT22;7554;43.600;1.480;2022-07-23T15:39:14;28.20;1.00
14924;DHT22;7554;43.600;1.480;2022-07-23T15:41:41;28.10;1.00
14924;DHT22;7554;43.600;1.480;2022-07-23T15:44:09;28.10;1.00
14924;DHT22;7554;43.600;1.480;2022-07-23T15:46:36;28.10;1.00
14924;DHT22;7554;43.600;1.480;2022-07-23T15:49:04;28.20;1.00
14924;DHT22;7554;43.600;1.480;2022-07-23T15:51:33;28.30;1.00
14924;DHT22;7554;43.600;1.480;2022-07-23T15:54:04;28.40;1.00
14924;DHT22;7554;43.600;1.480;2022-07-23T15:56:34;28.30;1.00
14924;DHT22;7554;43.600;1.480;2022-07-23T15:59:02;28.40;1.00
14924;DHT22;7554;43.600;1.480;2022-07-23T16:01:29;28.30;1.00
14924;DHT22;7554;43.600;1.480;2022-07-23T16:03:57;28.30;1.00
14924;DHT22;7554;43.600;1.480;2022-07-23T16:06:25;28.40;1.00
14924;DHT22;7554;43.600;1.480;2022-07-23T16:08:54;28.30;1.00
14924;DHT22;7554;43.600;1.480;2022-07-23T16:11:22;28.30;1.00
14924;DHT22;7554;43.600;1.480;2022-07-23T16:13:50;28.20;1.00
14924;DHT22;7554;43.600;1.480;2022-07-23T16:16:17;28.20;1.00
14924;DHT22;7554;43.600;1.480;2022-07-23T16:18:45;28.20;1.00